Terminal Aerodrome Forecast
Issued by NWS Memphis, TN

Home | Current Version | Previous Version | Text Only | Print | Product List | Glossary On
Versions: 1 2 3 4 5 6 7 8 9 10 11 12 13
000
FTUS44 KMEG 262324
TAFJBR
TAF
KJBR 262324Z 2700/2724 16010KT P6SM OVC060
     FM270400 16007KT P6SM OVC025
     FM271000 15006KT P6SM VCSH OVC009
     FM271200 18008KT 4SM -RA OVC007=

USA.gov is the U.S. government's official web portal to all federal, state and local government web resources and services.